Time;durP1;ratioP1;P1;durP2;ratioP2;P2;SDS_P1;SDS_P2;PMS_P1;PMS_P2;Temp;Humidity;BMP_temperature;BMP_pressure;BME280_temperature;BME280_humidity;BME280_pressure;Samples;Min_cycle;Max_cycle;Signal;HPM_P1;HPM_P2
2021/08/16 00:00:54;;;;;;;;;;;18.90;99.90;;;;;;8426997;28;19909;-66
2021/08/16 00:04:55;;;;;;;;;;;18.80;99.90;;;;;;8427413;28;19930;-65
2021/08/16 00:08:55;;;;;;;;;;;18.90;99.90;;;;;;8407475;28;19923;-66
2021/08/16 00:12:57;;;;;;;;;;;18.90;99.90;;;;;;8426475;28;20002;-65
2021/08/16 00:16:57;;;;;;;;;;;18.90;99.90;;;;;;8427034;28;19908;-65
2021/08/16 00:20:58;;;;;;;;;;;18.90;99.90;;;;;;8425963;28;20435;-65
2021/08/16 00:24:58;;;;;;;;;;;18.90;99.90;;;;;;8426935;28;20007;-65
2021/08/16 00:28:59;;;;;;;;;;;19.00;99.90;;;;;;8426204;28;19965;-66
2021/08/16 00:33:00;;;;;;;;;;;18.90;99.90;;;;;;8426332;28;20484;-66
2021/08/16 00:37:00;;;;;;;;;;;18.90;99.90;;;;;;8426300;28;19909;-65
2021/08/16 00:41:01;;;;;;;;;;;18.80;99.90;;;;;;8425705;28;19912;-66
2021/08/16 00:45:03;;;;;;;;;;;18.80;99.90;;;;;;8426111;28;19916;-66
2021/08/16 00:49:04;;;;;;;;;;;18.90;99.90;;;;;;8425924;28;19934;-66
2021/08/16 00:53:04;;;;;;;;;;;18.80;99.90;;;;;;8426199;28;19958;-65
2021/08/16 00:57:06;;;;;;;;;;;18.80;99.90;;;;;;8426199;28;19908;-66
2021/08/16 01:01:06;;;;;;;;;;;18.70;99.90;;;;;;8425754;28;19912;-66
2021/08/16 01:05:07;;;;;;;;;;;18.70;99.90;;;;;;8425842;28;19908;-65
2021/08/16 01:09:08;;;;;;;;;;;18.80;99.90;;;;;;8425385;28;20392;-65
2021/08/16 01:13:08;;;;;;;;;;;18.70;99.90;;;;;;8425038;28;20008;-66
2021/08/16 01:17:10;;;;;;;;;;;18.50;99.90;;;;;;8425547;28;20297;-66
2021/08/16 01:21:13;;;;;;;;;;;18.50;99.90;;;;;;8424016;28;20045;-66
2021/08/16 01:25:14;;;;;;;;;;;18.70;99.90;;;;;;8425176;28;19974;-67
2021/08/16 01:29:16;;;;;;;;;;;18.50;99.90;;;;;;8425045;28;19930;-65
2021/08/16 01:33:17;;;;;;;;;;;18.40;99.90;;;;;;8406944;28;19916;-66
2021/08/16 01:37:17;;;;;;;;;;;18.60;99.90;;;;;;8417168;28;19948;-66
2021/08/16 01:41:18;;;;;;;;;;;18.60;99.90;;;;;;8373147;28;20319;-66
2021/08/16 01:45:18;;;;;;;;;;;18.70;99.90;;;;;;8391368;28;19916;-66
2021/08/16 01:49:19;;;;;;;;;;;18.90;99.90;;;;;;8391210;28;20385;-65
2021/08/16 01:53:19;;;;;;;;;;;18.70;99.90;;;;;;8419705;28;19999;-65
2021/08/16 01:57:19;;;;;;;;;;;18.80;99.90;;;;;;8424683;28;19908;-65
2021/08/16 02:01:20;;;;;;;;;;;18.80;99.90;;;;;;8424141;28;20302;-65
2021/08/16 02:05:20;;;;;;;;;;;18.60;99.90;;;;;;8424425;28;20423;-66
2021/08/16 02:09:21;;;;;;;;;;;18.30;99.90;;;;;;8424454;28;20375;-66
2021/08/16 02:13:21;;;;;;;;;;;18.30;99.90;;;;;;8423911;28;19962;-65
2021/08/16 02:17:22;;;;;;;;;;;18.70;99.90;;;;;;8424222;28;19913;-66
2021/08/16 02:21:22;;;;;;;;;;;18.50;99.90;;;;;;8423544;28;19916;-65
2021/08/16 02:25:22;;;;;;;;;;;18.50;99.90;;;;;;8424260;28;20025;-65
2021/08/16 02:29:23;;;;;;;;;;;18.40;99.90;;;;;;8424039;28;19908;-65
2021/08/16 02:33:23;;;;;;;;;;;18.30;99.90;;;;;;8427155;28;19957;-66
2021/08/16 02:37:24;;;;;;;;;;;18.30;99.90;;;;;;8429957;28;19983;-65
2021/08/16 02:41:24;;;;;;;;;;;18.50;99.90;;;;;;8411635;28;19908;-65
2021/08/16 02:45:25;;;;;;;;;;;18.50;99.90;;;;;;8429643;28;20362;-66
2021/08/16 02:49:25;;;;;;;;;;;18.30;99.90;;;;;;8411297;28;19908;-66
2021/08/16 02:53:26;;;;;;;;;;;18.20;99.90;;;;;;8429410;28;19913;-66
2021/08/16 02:57:27;;;;;;;;;;;18.10;99.90;;;;;;8428247;28;20565;-66
2021/08/16 03:01:27;;;;;;;;;;;18.20;99.90;;;;;;8429229;28;20386;-65
2021/08/16 03:05:27;;;;;;;;;;;18.40;99.90;;;;;;8410802;28;19919;-65
2021/08/16 03:09:28;;;;;;;;;;;18.90;99.90;;;;;;8428800;28;19909;-66
2021/08/16 03:13:29;;;;;;;;;;;19.30;99.90;;;;;;8428528;28;19999;-65
2021/08/16 03:17:29;;;;;;;;;;;19.60;99.90;;;;;;8410163;28;19951;-65
2021/08/16 03:21:30;;;;;;;;;;;19.50;99.90;;;;;;8428051;28;20426;-65
2021/08/16 03:25:30;;;;;;;;;;;19.60;99.90;;;;;;8428352;28;20516;-65
2021/08/16 03:29:30;;;;;;;;;;;19.60;99.90;;;;;;8428204;28;20417;-65
2021/08/16 03:33:31;;;;;;;;;;;19.40;99.90;;;;;;8428078;28;20263;-65
2021/08/16 03:37:34;;;;;;;;;;;19.40;99.90;;;;;;8409747;28;19931;-66
2021/08/16 03:41:35;;;;;;;;;;;19.10;99.90;;;;;;8409815;28;19915;-66
2021/08/16 03:45:35;;;;;;;;;;;18.90;99.90;;;;;;8427380;28;20008;-65
2021/08/16 03:49:36;;;;;;;;;;;19.10;99.90;;;;;;8427404;28;20049;-66
2021/08/16 03:53:36;;;;;;;;;;;18.90;99.90;;;;;;8422176;28;19916;-66
2021/08/16 03:57:37;;;;;;;;;;;18.90;99.90;;;;;;8422763;28;19923;-66
2021/08/16 04:01:37;;;;;;;;;;;19.10;99.90;;;;;;8414093;28;19908;-65
2021/08/16 04:05:38;;;;;;;;;;;19.10;99.90;;;;;;8417566;28;19912;-65
2021/08/16 04:09:39;;;;;;;;;;;19.20;99.90;;;;;;8409758;28;19999;-66
2021/08/16 04:13:39;;;;;;;;;;;19.00;99.90;;;;;;8427284;28;19962;-66
2021/08/16 04:17:40;;;;;;;;;;;19.20;99.90;;;;;;8426919;28;19998;-65
2021/08/16 04:21:40;;;;;;;;;;;19.20;99.90;;;;;;8426605;28;19913;-66
2021/08/16 04:25:41;;;;;;;;;;;19.30;99.90;;;;;;8409459;28;20489;-66
2021/08/16 04:29:41;;;;;;;;;;;19.50;99.90;;;;;;8382133;28;20490;-65
2021/08/16 04:33:42;;;;;;;;;;;19.60;99.90;;;;;;8418443;28;19993;-65
2021/08/16 04:37:42;;;;;;;;;;;19.20;99.90;;;;;;8408383;28;20340;-67
2021/08/16 04:41:43;;;;;;;;;;;18.50;99.90;;;;;;8373729;28;20535;-68
2021/08/16 04:45:43;;;;;;;;;;;18.10;99.90;;;;;;8391231;28;20003;-68
2021/08/16 04:49:44;;;;;;;;;;;18.10;99.90;;;;;;8390816;28;19909;-67
2021/08/16 04:53:44;;;;;;;;;;;18.10;99.90;;;;;;8405806;28;19909;-68
2021/08/16 04:57:45;;;;;;;;;;;18.10;99.90;;;;;;8425144;28;20003;-67
2021/08/16 05:01:48;;;;;;;;;;;18.00;99.90;;;;;;8425457;28;19958;-67
2021/08/16 05:05:52;;;;;;;;;;;18.10;99.90;;;;;;8413137;28;19931;-67
2021/08/16 05:09:53;;;;;;;;;;;18.10;99.90;;;;;;8389996;28;19995;-67
2021/08/16 05:13:53;;;;;;;;;;;18.30;99.90;;;;;;8408524;28;20271;-67
2021/08/16 05:17:54;;;;;;;;;;;18.30;99.90;;;;;;8393408;28;20439;-67
2021/08/16 05:21:54;;;;;;;;;;;18.60;99.90;;;;;;8424431;28;19912;-68
2021/08/16 05:25:55;;;;;;;;;;;18.70;99.90;;;;;;8416809;28;19998;-68
2021/08/16 05:29:55;;;;;;;;;;;18.90;99.90;;;;;;8420678;28;19969;-68
2021/08/16 05:33:56;;;;;;;;;;;18.90;99.90;;;;;;8420365;28;20046;-67
2021/08/16 05:37:57;;;;;;;;;;;18.90;99.90;;;;;;8400627;28;19920;-67
2021/08/16 05:41:58;;;;;;;;;;;18.90;99.90;;;;;;8424070;28;20359;-67
2021/08/16 05:45:58;;;;;;;;;;;19.00;99.90;;;;;;8423470;28;19916;-67
2021/08/16 05:50:00;;;;;;;;;;;19.20;99.90;;;;;;8422814;28;19916;-67
2021/08/16 05:54:00;;;;;;;;;;;19.50;99.90;;;;;;8424675;28;20006;-67
2021/08/16 05:58:01;;;;;;;;;;;19.60;99.90;;;;;;8423180;28;19916;-68
2021/08/16 06:02:01;;;;;;;;;;;19.90;99.90;;;;;;8423610;28;19915;-67
2021/08/16 06:06:02;;;;;;;;;;;20.10;99.90;;;;;;8424026;28;19928;-68
2021/08/16 06:10:03;;;;;;;;;;;20.20;99.90;;;;;;8428960;28;19943;-68
2021/08/16 06:14:03;;;;;;;;;;;20.50;99.90;;;;;;8418788;28;19939;-67
2021/08/16 06:18:04;;;;;;;;;;;20.90;99.90;;;;;;8409264;28;20028;-68
2021/08/16 06:22:05;;;;;;;;;;;21.10;99.90;;;;;;8411499;28;19908;-68
2021/08/16 06:26:07;;;;;;;;;;;21.30;99.90;;;;;;8412102;28;20006;-68
2021/08/16 06:30:08;;;;;;;;;;;21.30;99.90;;;;;;8429773;28;19908;-68
2021/08/16 06:34:09;;;;;;;;;;;21.20;99.90;;;;;;8429675;28;19954;-68
2021/08/16 06:38:21;;;;;;;;;;;21.00;99.90;;;;;;8429518;28;20640;-68
2021/08/16 06:42:21;;;;;;;;;;;20.90;99.90;;;;;;8429824;28;19908;-68
2021/08/16 06:46:22;;;;;;;;;;;20.80;99.90;;;;;;8429263;28;20313;-67
2021/08/16 06:50:22;;;;;;;;;;;20.90;99.90;;;;;;8429051;28;19914;-68
2021/08/16 06:54:23;;;;;;;;;;;20.90;99.90;;;;;;8429326;28;19908;-68
2021/08/16 06:58:24;;;;;;;;;;;20.70;99.90;;;;;;8385150;28;20298;-68
2021/08/16 07:02:24;;;;;;;;;;;20.60;99.90;;;;;;8395319;28;19909;-68
2021/08/16 07:06:25;;;;;;;;;;;20.80;99.90;;;;;;8395545;28;19916;-68
2021/08/16 07:10:26;;;;;;;;;;;21.10;99.90;;;;;;8395080;28;19915;-68
2021/08/16 07:14:26;;;;;;;;;;;21.40;99.90;;;;;;8395695;28;19920;-68
2021/08/16 07:18:27;;;;;;;;;;;21.30;99.90;;;;;;8394008;28;20650;-69
2021/08/16 07:22:27;;;;;;;;;;;21.20;99.90;;;;;;8416453;28;20483;-69
2021/08/16 07:26:28;;;;;;;;;;;21.30;99.90;;;;;;8428756;28;20437;-69
2021/08/16 07:30:28;;;;;;;;;;;21.60;99.90;;;;;;8406566;28;19916;-69
2021/08/16 07:34:29;;;;;;;;;;;22.00;99.90;;;;;;8427105;28;19912;-68
2021/08/16 07:38:29;;;;;;;;;;;22.00;99.90;;;;;;8427239;28;19915;-68
2021/08/16 07:42:30;;;;;;;;;;;22.10;99.90;;;;;;8412991;28;19916;-68
2021/08/16 07:46:30;;;;;;;;;;;22.00;99.90;;;;;;8411711;28;19927;-68
2021/08/16 07:50:31;;;;;;;;;;;22.20;99.90;;;;;;8396682;28;19973;-69
2021/08/16 07:54:32;;;;;;;;;;;22.30;99.90;;;;;;8413783;28;19924;-68
2021/08/16 07:58:32;;;;;;;;;;;22.50;99.90;;;;;;8409079;28;19942;-69
2021/08/16 08:02:40;;;;;;;;;;;22.40;99.90;;;;;;8408422;28;19923;-69
2021/08/16 08:06:41;;;;;;;;;;;22.10;99.90;;;;;;8417381;28;19951;-68
2021/08/16 08:10:41;;;;;;;;;;;22.00;99.90;;;;;;8409302;28;20278;-69
2021/08/16 08:14:42;;;;;;;;;;;22.20;99.90;;;;;;8409890;28;20037;-70
2021/08/16 08:18:42;;;;;;;;;;;22.40;99.90;;;;;;8392821;28;20370;-68
2021/08/16 08:22:42;;;;;;;;;;;21.70;99.90;;;;;;8416565;28;19908;-68
2021/08/16 08:26:43;;;;;;;;;;;20.90;99.90;;;;;;8420539;28;19916;-69
2021/08/16 08:30:44;;;;;;;;;;;20.50;99.90;;;;;;8424926;28;19912;-68
2021/08/16 08:34:44;;;;;;;;;;;20.50;99.90;;;;;;8425837;28;19999;-68
2021/08/16 08:38:45;;;;;;;;;;;20.70;99.90;;;;;;8426092;28;19930;-68
2021/08/16 08:42:52;;;;;;;;;;;20.80;99.90;;;;;;8426556;28;20125;-70
2021/08/16 08:46:53;;;;;;;;;;;21.00;99.90;;;;;;8407652;28;20396;-68
2021/08/16 08:50:54;;;;;;;;;;;21.00;99.90;;;;;;8425660;28;19912;-69
2021/08/16 08:54:55;;;;;;;;;;;20.70;99.90;;;;;;8425517;28;19991;-68
2021/08/16 08:58:56;;;;;;;;;;;20.60;99.90;;;;;;8424965;28;19923;-69
2021/08/16 09:03:04;;;;;;;;;;;20.70;99.90;;;;;;8425822;28;20564;-69
2021/08/16 09:07:04;;;;;;;;;;;20.90;99.90;;;;;;8424874;28;19916;-68
2021/08/16 09:11:06;;;;;;;;;;;20.90;99.90;;;;;;8410052;28;19916;-68
2021/08/16 09:15:25;;;;;;;;;;;20.40;99.90;;;;;;8404974;28;19916;-68
2021/08/16 09:19:26;;;;;;;;;;;20.40;99.90;;;;;;8424661;28;19916;-70
2021/08/16 09:23:26;;;;;;;;;;;20.40;99.90;;;;;;8417982;28;20016;-68
2021/08/16 09:27:27;;;;;;;;;;;20.30;99.90;;;;;;8389251;28;20041;-69
2021/08/16 09:31:27;;;;;;;;;;;20.60;99.90;;;;;;8377093;28;20361;-69
2021/08/16 09:35:28;;;;;;;;;;;20.80;99.90;;;;;;8389495;28;19916;-69
2021/08/16 09:39:32;;;;;;;;;;;21.40;99.90;;;;;;8391303;28;19909;-69
2021/08/16 09:43:33;;;;;;;;;;;22.00;99.90;;;;;;8397234;28;20007;-69
2021/08/16 09:47:44;;;;;;;;;;;22.30;99.90;;;;;;8398186;28;19920;-69
2021/08/16 09:51:44;;;;;;;;;;;22.80;99.90;;;;;;8413328;28;20520;-69
2021/08/16 09:55:46;;;;;;;;;;;23.10;99.90;;;;;;8431394;28;19908;-68
2021/08/16 09:59:47;;;;;;;;;;;22.30;99.90;;;;;;8431250;28;19912;-68
2021/08/16 10:03:48;;;;;;;;;;;21.80;99.90;;;;;;8431229;28;19914;-68
2021/08/16 10:07:48;;;;;;;;;;;21.70;99.90;;;;;;8431075;28;19912;-69
2021/08/16 10:11:49;;;;;;;;;;;21.50;99.90;;;;;;8414085;28;19908;-70
2021/08/16 10:16:00;;;;;;;;;;;21.40;99.90;;;;;;8430972;28;19947;-69
2021/08/16 10:20:01;;;;;;;;;;;21.30;99.90;;;;;;8430467;28;19916;-68
2021/08/16 10:24:02;;;;;;;;;;;21.10;99.90;;;;;;8430567;28;20011;-69
2021/08/16 10:28:02;;;;;;;;;;;21.30;99.90;;;;;;8430246;28;19947;-69
2021/08/16 10:32:03;;;;;;;;;;;21.20;99.90;;;;;;8429775;28;19939;-69
2021/08/16 10:36:04;;;;;;;;;;;21.10;99.90;;;;;;8430209;28;20007;-69
2021/08/16 10:40:13;;;;;;;;;;;21.20;99.90;;;;;;8429835;28;20010;-69
2021/08/16 10:44:17;;;;;;;;;;;21.20;99.90;;;;;;8429873;28;20138;-68
2021/08/16 10:48:20;;;;;;;;;;;21.20;99.90;;;;;;8429280;28;19912;-69
2021/08/16 10:52:21;;;;;;;;;;;21.20;99.90;;;;;;8428258;28;19915;-69
2021/08/16 10:56:22;;;;;;;;;;;21.00;99.90;;;;;;8411326;28;20342;-69
2021/08/16 11:00:23;;;;;;;;;;;21.10;99.90;;;;;;8429513;28;20423;-68
2021/08/16 11:04:28;;;;;;;;;;;21.20;99.90;;;;;;8429203;28;19989;-69
2021/08/16 11:08:28;;;;;;;;;;;21.40;99.90;;;;;;8428593;28;19952;-69
2021/08/16 11:12:31;;;;;;;;;;;21.20;99.90;;;;;;8428075;28;19931;-69
2021/08/16 11:16:31;;;;;;;;;;;21.10;99.90;;;;;;8428847;28;19991;-68
2021/08/16 11:20:32;;;;;;;;;;;20.90;99.90;;;;;;8428113;28;20298;-69
2021/08/16 11:24:36;;;;;;;;;;;20.80;99.90;;;;;;8428601;28;19915;-68
2021/08/16 11:28:37;;;;;;;;;;;20.90;99.90;;;;;;8410034;28;19923;-68
2021/08/16 11:32:38;;;;;;;;;;;21.10;99.90;;;;;;8409875;28;19908;-68
2021/08/16 11:36:39;;;;;;;;;;;21.30;99.90;;;;;;8427884;28;19908;-68
2021/08/16 11:40:39;;;;;;;;;;;21.10;99.90;;;;;;8427848;28;19962;-68
2021/08/16 11:44:39;;;;;;;;;;;21.10;99.90;;;;;;8427900;28;19912;-68
2021/08/16 11:48:58;;;;;;;;;;;20.80;99.90;;;;;;8427334;28;20354;-68
2021/08/16 11:52:59;;;;;;;;;;;20.60;99.90;;;;;;8409615;28;19936;-68
2021/08/16 11:57:01;;;;;;;;;;;20.40;99.90;;;;;;8427415;28;19908;-68
2021/08/16 12:01:01;;;;;;;;;;;20.60;99.90;;;;;;8427071;28;20400;-68
2021/08/16 12:05:02;;;;;;;;;;;20.60;99.90;;;;;;8427268;28;19923;-68
2021/08/16 12:09:04;;;;;;;;;;;20.30;99.90;;;;;;8427100;28;19920;-67
2021/08/16 12:13:06;;;;;;;;;;;20.10;99.90;;;;;;8426578;28;21401;-68
2021/08/16 12:17:07;;;;;;;;;;;19.90;99.90;;;;;;8408707;28;19912;-68
2021/08/16 12:21:18;;;;;;;;;;;19.70;99.90;;;;;;8425895;28;19923;-68
2021/08/16 12:25:18;;;;;;;;;;;19.60;99.90;;;;;;8426850;28;19909;-68
2021/08/16 12:29:20;;;;;;;;;;;19.50;99.90;;;;;;8426215;28;19981;-68
2021/08/16 12:33:20;;;;;;;;;;;19.40;99.90;;;;;;8426399;28;19908;-68
2021/08/16 12:37:22;;;;;;;;;;;19.20;99.90;;;;;;8425830;28;20007;-69
2021/08/16 12:41:24;;;;;;;;;;;19.20;99.90;;;;;;8426716;28;19909;-68
2021/08/16 12:45:25;;;;;;;;;;;19.30;99.90;;;;;;8426402;28;19908;-68
2021/08/16 12:49:25;;;;;;;;;;;19.60;99.90;;;;;;8425618;28;20139;-68
2021/08/16 12:53:25;;;;;;;;;;;20.10;99.90;;;;;;8408077;28;19915;-69
2021/08/16 12:57:26;;;;;;;;;;;20.20;99.90;;;;;;8425518;28;20281;-69
2021/08/16 13:01:26;;;;;;;;;;;20.10;99.90;;;;;;8425717;28;19912;-69
2021/08/16 13:05:27;;;;;;;;;;;19.80;99.90;;;;;;8407641;28;20014;-68
2021/08/16 13:09:27;;;;;;;;;;;19.80;99.90;;;;;;8425328;28;20259;-68
2021/08/16 13:13:28;;;;;;;;;;;19.70;99.90;;;;;;8426040;28;20378;-68
2021/08/16 13:17:28;;;;;;;;;;;19.70;99.90;;;;;;8424573;28;20378;-70
2021/08/16 13:21:29;;;;;;;;;;;19.60;99.90;;;;;;8407148;28;19912;-69
2021/08/16 13:25:30;;;;;;;;;;;19.50;99.90;;;;;;8425512;28;19908;-69
2021/08/16 13:29:31;;;;;;;;;;;19.40;99.90;;;;;;8425167;28;19957;-70
2021/08/16 13:33:31;;;;;;;;;;;19.20;99.90;;;;;;8424208;28;20370;-69
2021/08/16 13:37:32;;;;;;;;;;;19.10;99.90;;;;;;8424487;28;20034;-69
2021/08/16 13:41:32;;;;;;;;;;;18.90;99.90;;;;;;8425126;28;19908;-69
2021/08/16 13:45:32;;;;;;;;;;;19.00;99.90;;;;;;8425227;28;19915;-69
2021/08/16 13:49:34;;;;;;;;;;;19.00;99.90;;;;;;8424840;28;20401;-69
2021/08/16 13:53:34;;;;;;;;;;;18.80;99.90;;;;;;8425169;28;19908;-69
2021/08/16 13:57:35;;;;;;;;;;;18.70;99.90;;;;;;8406278;28;20305;-69
2021/08/16 14:01:35;;;;;;;;;;;18.70;99.90;;;;;;8415071;28;19913;-69
2021/08/16 14:05:36;;;;;;;;;;;18.70;99.90;;;;;;8388214;28;19912;-69
2021/08/16 14:09:36;;;;;;;;;;;18.80;99.90;;;;;;8406215;28;19978;-69
2021/08/16 14:13:37;;;;;;;;;;;18.60;99.90;;;;;;8405201;28;20266;-69
2021/08/16 14:17:37;;;;;;;;;;;18.60;99.90;;;;;;8419984;28;19987;-69
2021/08/16 14:21:38;;;;;;;;;;;19.00;99.90;;;;;;8424142;28;19977;-68
2021/08/16 14:25:38;;;;;;;;;;;19.30;99.90;;;;;;8424690;28;19999;-70
2021/08/16 14:29:39;;;;;;;;;;;19.40;99.90;;;;;;8405596;28;19927;-70
2021/08/16 14:33:39;;;;;;;;;;;19.40;99.90;;;;;;8429712;28;20024;-71
2021/08/16 14:37:40;;;;;;;;;;;19.20;99.90;;;;;;8411048;28;20270;-69
2021/08/16 14:41:40;;;;;;;;;;;19.30;99.90;;;;;;8429855;28;19916;-69
2021/08/16 14:45:41;;;;;;;;;;;19.50;99.90;;;;;;8429720;28;20270;-67
2021/08/16 14:49:41;;;;;;;;;;;19.50;99.90;;;;;;8428972;28;19919;-67
2021/08/16 14:53:42;;;;;;;;;;;19.60;99.90;;;;;;8428416;28;19912;-68
2021/08/16 14:57:43;;;;;;;;;;;19.60;99.90;;;;;;8427288;28;20354;-67
2021/08/16 15:01:43;;;;;;;;;;;19.50;99.90;;;;;;8427022;28;19916;-67
2021/08/16 15:05:44;;;;;;;;;;;19.40;99.90;;;;;;8427133;28;20132;-68
2021/08/16 15:09:44;;;;;;;;;;;19.20;99.90;;;;;;8425617;28;19916;-67
2021/08/16 15:13:45;;;;;;;;;;;19.10;99.90;;;;;;8427464;28;19936;-67
2021/08/16 15:17:45;;;;;;;;;;;19.00;99.90;;;;;;8426419;28;19920;-67
2021/08/16 15:21:46;;;;;;;;;;;18.80;99.90;;;;;;8408954;28;20365;-67
2021/08/16 15:25:46;;;;;;;;;;;18.60;99.90;;;;;;8429326;28;20377;-65
2021/08/16 15:29:47;;;;;;;;;;;18.20;99.90;;;;;;8428357;28;19912;-66
2021/08/16 15:33:47;;;;;;;;;;;17.70;99.90;;;;;;8428363;28;19915;-66
2021/08/16 15:37:48;;;;;;;;;;;17.60;99.90;;;;;;8428222;28;20362;-66
2021/08/16 15:41:48;;;;;;;;;;;17.70;99.90;;;;;;8428116;28;19908;-67
2021/08/16 15:45:49;;;;;;;;;;;17.70;99.90;;;;;;8409848;28;19912;-67
2021/08/16 15:49:49;;;;;;;;;;;18.00;99.90;;;;;;8427369;28;19908;-66
2021/08/16 15:53:49;;;;;;;;;;;18.10;99.90;;;;;;8428008;28;19908;-66
2021/08/16 15:57:50;;;;;;;;;;;18.10;99.90;;;;;;8427042;28;20350;-67
2021/08/16 16:01:51;;;;;;;;;;;18.10;99.90;;;;;;8409282;28;20382;-66
2021/08/16 16:05:53;;;;;;;;;;;18.00;99.90;;;;;;8427549;28;19995;-67
2021/08/16 16:09:53;;;;;;;;;;;17.90;99.90;;;;;;8408392;28;19915;-67
2021/08/16 16:14:00;;;;;;;;;;;17.80;99.90;;;;;;8409207;28;20434;-66
2021/08/16 16:18:01;;;;;;;;;;;17.70;99.90;;;;;;8408350;28;19919;-65
2021/08/16 16:22:04;;;;;;;;;;;17.60;99.90;;;;;;8408080;28;19946;-65
2021/08/16 16:26:04;;;;;;;;;;;17.40;99.90;;;;;;8426778;28;19912;-66
2021/08/16 16:30:05;;;;;;;;;;;17.40;99.90;;;;;;8426496;28;20278;-66
2021/08/16 16:34:05;;;;;;;;;;;17.50;99.90;;;;;;8426732;28;19908;-65
2021/08/16 16:38:06;;;;;;;;;;;17.50;99.90;;;;;;8426820;28;19908;-66
2021/08/16 16:42:06;;;;;;;;;;;17.40;99.90;;;;;;8426599;28;19912;-66
2021/08/16 16:46:07;;;;;;;;;;;17.40;99.90;;;;;;8426730;28;19965;-66
2021/08/16 16:50:08;;;;;;;;;;;17.50;99.90;;;;;;8423846;28;19909;-66
2021/08/16 16:54:09;;;;;;;;;;;17.90;99.90;;;;;;8425643;28;19912;-66
2021/08/16 16:58:10;;;;;;;;;;;20.40;99.90;;;;;;8424384;28;19935;-67
2021/08/16 17:02:10;;;;;;;;;;;22.50;99.90;;;;;;8424468;28;20278;-67
2021/08/16 17:06:11;;;;;;;;;;;22.40;99.90;;;;;;8424700;28;19966;-67
2021/08/16 17:10:11;;;;;;;;;;;22.70;99.90;;;;;;8424037;28;19916;-67
2021/08/16 17:14:14;;;;;;;;;;;22.30;99.90;;;;;;8425447;28;20270;-67
2021/08/16 17:18:14;;;;;;;;;;;21.60;99.90;;;;;;8424700;28;21053;-67
2021/08/16 17:22:15;;;;;;;;;;;21.20;99.90;;;;;;8410618;28;20399;-66
2021/08/16 17:26:15;;;;;;;;;;;20.60;99.90;;;;;;8424795;28;19922;-67
2021/08/16 17:30:17;;;;;;;;;;;20.20;99.90;;;;;;8423774;28;19908;-66
2021/08/16 17:34:18;;;;;;;;;;;19.70;99.90;;;;;;8404912;28;19924;-68
2021/08/16 17:38:18;;;;;;;;;;;19.20;99.90;;;;;;8424636;28;19912;-66
2021/08/16 17:42:19;;;;;;;;;;;18.90;99.90;;;;;;8406537;28;19909;-68
2021/08/16 17:46:19;;;;;;;;;;;18.70;99.90;;;;;;8425209;28;20394;-67
2021/08/16 17:50:20;;;;;;;;;;;18.70;99.90;;;;;;8424452;28;20288;-67
2021/08/16 17:54:20;;;;;;;;;;;18.80;99.90;;;;;;8407381;28;20285;-67
2021/08/16 17:58:21;;;;;;;;;;;18.90;99.90;;;;;;8405721;28;20333;-67
2021/08/16 18:02:21;;;;;;;;;;;18.70;99.90;;;;;;8428039;28;19917;-68
2021/08/16 18:06:22;;;;;;;;;;;18.30;99.90;;;;;;8431224;28;19939;-67
2021/08/16 18:10:23;;;;;;;;;;;18.10;99.90;;;;;;8430571;28;20156;-67
2021/08/16 18:14:23;;;;;;;;;;;17.80;99.90;;;;;;8431751;28;20304;-67
2021/08/16 18:18:24;;;;;;;;;;;17.60;99.90;;;;;;8430927;28;19923;-67
2021/08/16 18:22:24;;;;;;;;;;;17.40;99.90;;;;;;8412241;28;19947;-68
2021/08/16 18:26:25;;;;;;;;;;;17.10;99.90;;;;;;8430698;28;19923;-67
2021/08/16 18:30:25;;;;;;;;;;;16.90;99.90;;;;;;8429309;28;19930;-66
2021/08/16 18:34:27;;;;;;;;;;;16.70;99.90;;;;;;8422155;28;19920;-67
2021/08/16 18:38:27;;;;;;;;;;;16.50;99.90;;;;;;8425039;28;19916;-67
2021/08/16 18:42:28;;;;;;;;;;;16.40;99.90;;;;;;8408792;28;20162;-67
2021/08/16 18:46:28;;;;;;;;;;;16.20;99.90;;;;;;8425916;28;19916;-67
2021/08/16 18:50:29;;;;;;;;;;;16.00;99.90;;;;;;8429362;28;19995;-67
2021/08/16 18:54:30;;;;;;;;;;;15.90;99.90;;;;;;8411002;28;20272;-67
2021/08/16 18:58:30;;;;;;;;;;;16.00;99.90;;;;;;8426105;28;20367;-67
2021/08/16 19:02:31;;;;;;;;;;;15.90;99.90;;;;;;8425092;28;19912;-68
2021/08/16 19:06:32;;;;;;;;;;;15.90;99.90;;;;;;8428152;28;19916;-67
2021/08/16 19:10:32;;;;;;;;;;;15.90;99.90;;;;;;8428697;28;19912;-66
2021/08/16 19:14:32;;;;;;;;;;;15.90;99.90;;;;;;8410092;28;19912;-67
2021/08/16 19:18:33;;;;;;;;;;;15.70;99.90;;;;;;8408738;28;19961;-67
2021/08/16 19:22:34;;;;;;;;;;;15.70;99.90;;;;;;8424363;28;19919;-66
2021/08/16 19:26:34;;;;;;;;;;;15.50;99.90;;;;;;8406027;28;19951;-66
2021/08/16 19:30:35;;;;;;;;;;;15.40;99.90;;;;;;8428074;28;20388;-66
2021/08/16 19:34:35;;;;;;;;;;;15.30;99.90;;;;;;8428650;28;19908;-66
2021/08/16 19:38:36;;;;;;;;;;;15.30;99.90;;;;;;8427656;28;19916;-66
2021/08/16 19:42:36;;;;;;;;;;;15.20;99.90;;;;;;8410528;28;20386;-66
2021/08/16 19:46:37;;;;;;;;;;;15.40;99.90;;;;;;8400931;28;20394;-67
2021/08/16 19:50:40;;;;;;;;;;;15.30;99.90;;;;;;8408574;28;20356;-67
2021/08/16 19:54:40;;;;;;;;;;;15.30;99.90;;;;;;8428234;28;19962;-66
2021/08/16 19:58:44;;;;;;;;;;;15.40;99.90;;;;;;8420244;28;20423;-66
2021/08/16 20:02:44;;;;;;;;;;;15.40;99.90;;;;;;8426514;28;20348;-65
2021/08/16 20:06:45;;;;;;;;;;;15.40;99.90;;;;;;8425569;28;19912;-66
2021/08/16 20:10:46;;;;;;;;;;;15.50;99.90;;;;;;8426374;28;19908;-66
2021/08/16 20:14:46;;;;;;;;;;;15.50;99.90;;;;;;8423401;28;19964;-65
2021/08/16 20:18:47;;;;;;;;;;;15.60;99.90;;;;;;8426154;28;19923;-65
2021/08/16 20:22:47;;;;;;;;;;;15.80;99.90;;;;;;8406848;28;19986;-64
2021/08/16 20:26:48;;;;;;;;;;;15.70;99.90;;;;;;8391265;28;19919;-65
2021/08/16 20:30:48;;;;;;;;;;;15.70;99.90;;;;;;8409179;28;20970;-65
2021/08/16 20:34:49;;;;;;;;;;;15.80;99.90;;;;;;8423300;28;19912;-65
2021/08/16 20:38:49;;;;;;;;;;;15.80;99.90;;;;;;8426234;28;20397;-66
2021/08/16 20:42:51;;;;;;;;;;;15.80;99.90;;;;;;8421043;28;19935;-65
2021/08/16 20:46:52;;;;;;;;;;;15.80;99.90;;;;;;8426307;28;19912;-65
2021/08/16 20:50:53;;;;;;;;;;;15.70;99.90;;;;;;8425942;28;20305;-65
2021/08/16 20:54:53;;;;;;;;;;;15.50;99.90;;;;;;8425771;28;19908;-64
2021/08/16 20:58:54;;;;;;;;;;;15.40;99.90;;;;;;8425183;28;19912;-64
2021/08/16 21:02:54;;;;;;;;;;;15.40;99.90;;;;;;8425542;28;19950;-65
2021/08/16 21:06:56;;;;;;;;;;;15.30;99.90;;;;;;8425351;28;19912;-64
2021/08/16 21:10:56;;;;;;;;;;;15.30;99.90;;;;;;8425179;28;20016;-65
2021/08/16 21:14:57;;;;;;;;;;;15.30;99.90;;;;;;8425477;28;19912;-65
2021/08/16 21:18:57;;;;;;;;;;;15.20;99.90;;;;;;8425139;28;19920;-64
2021/08/16 21:22:58;;;;;;;;;;;15.20;99.90;;;;;;8425209;28;19962;-65
2021/08/16 21:26:59;;;;;;;;;;;15.20;99.90;;;;;;8425155;28;19912;-64
2021/08/16 21:30:59;;;;;;;;;;;15.20;99.90;;;;;;8424641;28;19961;-65
2021/08/16 21:35:01;;;;;;;;;;;15.20;99.90;;;;;;8406752;28;19971;-65
2021/08/16 21:39:02;;;;;;;;;;;15.30;99.90;;;;;;8429162;28;19908;-65
2021/08/16 21:43:03;;;;;;;;;;;15.40;99.90;;;;;;8431946;28;19909;-64
2021/08/16 21:47:03;;;;;;;;;;;15.40;99.90;;;;;;8431815;28;19912;-64
2021/08/16 21:51:04;;;;;;;;;;;15.40;99.90;;;;;;8431578;28;19915;-65
2021/08/16 21:55:06;;;;;;;;;;;15.40;99.90;;;;;;8431642;28;19909;-65
2021/08/16 21:59:06;;;;;;;;;;;15.40;99.90;;;;;;8431000;28;19915;-65
2021/08/16 22:03:07;;;;;;;;;;;15.20;99.90;;;;;;8431295;28;19939;-65
2021/08/16 22:07:07;;;;;;;;;;;15.00;99.90;;;;;;8431065;28;20342;-65
2021/08/16 22:11:08;;;;;;;;;;;14.10;99.90;;;;;;8430746;28;19919;-64
2021/08/16 22:15:08;;;;;;;;;;;13.70;99.90;;;;;;8431259;28;19915;-64
2021/08/16 22:19:09;;;;;;;;;;;13.50;99.90;;;;;;8430607;28;20298;-65
2021/08/16 22:23:09;;;;;;;;;;;13.40;99.90;;;;;;8430627;28;19908;-64
2021/08/16 22:27:10;;;;;;;;;;;13.30;99.90;;;;;;8431103;28;20136;-65
2021/08/16 22:31:10;;;;;;;;;;;13.20;99.90;;;;;;8480194;22;19924;-58
2021/08/16 22:35:11;;;;;;;;;;;13.30;99.90;;;;;;8463844;28;19908;-59
2021/08/16 22:39:11;;;;;;;;;;;13.20;99.90;;;;;;8463711;28;20374;-57
2021/08/16 22:43:12;;;;;;;;;;;13.30;99.90;;;;;;8463759;28;19908;-58
2021/08/16 22:47:12;;;;;;;;;;;13.20;99.90;;;;;;8463566;28;19923;-58
2021/08/16 22:51:13;;;;;;;;;;;13.30;99.90;;;;;;8462138;28;19996;-58
2021/08/16 22:55:14;;;;;;;;;;;13.10;99.90;;;;;;8463518;28;19918;-59
2021/08/16 22:59:14;;;;;;;;;;;13.10;99.90;;;;;;8462573;28;19980;-58
2021/08/16 23:03:15;;;;;;;;;;;13.20;99.90;;;;;;8463244;28;20342;-58
2021/08/16 23:07:15;;;;;;;;;;;13.30;99.90;;;;;;8463008;28;20393;-58
2021/08/16 23:11:24;;;;;;;;;;;13.30;99.90;;;;;;8462924;28;19914;-58
2021/08/16 23:15:25;;;;;;;;;;;13.10;99.90;;;;;;8463715;28;19912;-59
2021/08/16 23:19:25;;;;;;;;;;;13.20;99.90;;;;;;8462727;28;20269;-59